Time;durP1;ratioP1;P1;durP2;ratioP2;P2;SDS_P1;SDS_P2;PMS_P1;PMS_P2;Temp;Humidity;BMP_temperature;BMP_pressure;BME280_temperature;BME280_humidity;BME280_pressure;Samples;Min_cycle;Max_cycle;Signal;HPM_P1;HPM_P2
2021/11/19 00:03:48;;;;;;;9.73;6.85;;;;;;;9.97;84.92;100837.35;2831048;84;21037;-72
2021/11/19 00:07:50;;;;;;;7.92;5.97;;;;;;;9.97;84.99;100828.05;2832500;83;21676;-74
2021/11/19 00:11:54;;;;;;;10.28;6.25;;;;;;;9.91;85.06;100828.00;2831736;83;20970;-76
2021/11/19 00:15:59;;;;;;;11.65;6.15;;;;;;;10.00;85.14;100814.54;2831254;83;21041;-78
2021/11/19 00:20:02;;;;;;;10.95;5.75;;;;;;;10.01;85.62;100814.91;2832036;83;21031;-75
2021/11/19 00:24:06;;;;;;;8.53;6.53;;;;;;;10.01;85.47;100816.23;2831544;84;21056;-78
2021/11/19 00:28:09;;;;;;;7.75;5.95;;;;;;;9.99;85.74;100798.22;2831168;84;21084;-77
2021/11/19 00:32:11;;;;;;;7.97;5.65;;;;;;;9.90;86.04;100781.12;2830797;83;21028;-77
2021/11/19 00:36:17;;;;;;;7.08;5.65;;;;;;;9.92;86.38;100799.14;2830968;83;21072;-76
2021/11/19 00:40:36;;;;;;;7.45;5.78;;;;;;;9.90;86.92;100789.59;2830938;83;21096;-76
2021/11/19 00:44:38;;;;;;;5.05;4.25;;;;;;;9.95;86.50;100794.09;2830243;84;21025;-79
2021/11/19 00:48:41;;;;;;;6.47;4.40;;;;;;;9.99;86.58;100787.59;2831191;83;21029;-78
2021/11/19 00:52:43;;;;;;;8.48;4.80;;;;;;;9.99;86.66;100787.59;2835322;84;21052;-76
2021/11/19 00:56:50;;;;;;;4.60;4.15;;;;;;;9.93;87.04;100780.94;2835509;84;21565;-79
2021/11/19 01:01:00;;;;;;;4.85;3.45;;;;;;;10.02;87.28;100778.06;2835545;84;21037;-79
2021/11/19 01:05:03;;;;;;;9.80;4.40;;;;;;;10.02;87.60;100790.52;2834305;84;21025;-76
2021/11/19 01:09:10;;;;;;;9.90;5.08;;;;;;;9.97;87.88;100767.79;2835471;84;21075;-76
2021/11/19 01:13:13;;;;;;;4.58;4.12;;;;;;;10.00;88.04;100783.97;2835449;83;21060;-79
2021/11/19 01:17:20;;;;;;;4.95;3.05;;;;;;;9.97;88.49;100786.86;2835550;84;21021;-76
2021/11/19 01:21:42;;;;;;;7.83;4.15;;;;;;;9.98;88.68;100785.89;2834703;84;20997;-77
2021/11/19 01:25:49;;;;;;;5.47;4.40;;;;;;;10.03;88.75;100785.58;2835537;84;21501;-78
2021/11/19 01:29:52;;;;;;;5.05;4.30;;;;;;;10.01;88.96;100765.73;2835232;84;21092;-76
2021/11/19 01:33:54;;;;;;;4.12;2.95;;;;;;;10.00;89.18;100778.66;2835182;84;21139;-75
2021/11/19 01:37:56;;;;;;;4.75;3.55;;;;;;;9.92;89.51;100790.33;2835195;84;21012;-78
2021/11/19 01:42:23;;;;;;;4.60;3.05;;;;;;;9.99;90.04;100787.13;2835390;84;21434;-79
2021/11/19 01:46:29;;;;;;;4.50;2.95;;;;;;;10.03;90.36;100778.47;2835854;84;21069;-74
2021/11/19 01:50:42;;;;;;;9.50;2.95;;;;;;;10.04;90.61;100772.66;2833001;84;21053;-74
2021/11/19 01:55:03;;;;;;;3.45;3.15;;;;;;;9.98;90.93;100780.11;2830628;83;21080;-74
2021/11/19 01:59:23;;;;;;;2.30;2.10;;;;;;;10.01;91.00;100765.73;2828257;84;21065;-79
2021/11/19 02:03:29;;;;;;;2.67;2.12;;;;;;;10.09;91.66;100772.70;2830998;83;21035;-76
2021/11/19 02:07:34;;;;;;;;;;;;;;;10.07;92.01;100753.36;2833801;83;21096;-79
2021/11/19 02:12:21;;;;;;;3.70;3.12;;;;;;;10.10;92.13;100747.81;2831339;84;20137;-76
2021/11/19 02:16:28;;;;;;;3.63;3.33;;;;;;;10.11;92.25;100736.22;2833906;83;20998;-76
2021/11/19 02:20:35;;;;;;;4.00;3.30;;;;;;;10.10;92.63;100741.16;2773353;85;21059;-76
2021/11/19 02:24:54;;;;;;;2.42;1.95;;;;;;;10.08;93.19;100732.92;2744966;86;21091;-75
2021/11/19 02:28:57;;;;;;;5.62;3.17;;;;;;;10.02;93.97;100733.38;2720275;86;21043;-74
2021/11/19 02:33:09;;;;;;;11.33;2.77;;;;;;;10.04;94.17;100734.98;2746590;86;21429;-71
2021/11/19 02:37:32;;;;;;;2.70;2.47;;;;;;;9.96;94.28;100706.30;2746544;85;21067;-75
2021/11/19 02:41:42;;;;;;;3.77;1.70;;;;;;;10.00;94.40;100746.30;2746319;85;21047;-78
2021/11/19 02:45:46;;;;;;;2.12;1.90;;;;;;;10.04;94.68;100747.41;2745958;86;21107;-74
2021/11/19 02:49:48;;;;;;;2.72;1.75;;;;;;;10.02;94.62;100759.46;2746067;86;21055;-74
2021/11/19 02:53:51;;;;;;;1.85;1.52;;;;;;;9.99;95.13;100732.64;2746402;85;21067;-76
2021/11/19 02:57:53;;;;;;;2.92;1.82;;;;;;;9.95;95.62;100744.47;2746618;86;21064;-75
2021/11/19 03:02:12;;;;;;;3.87;2.05;;;;;;;10.03;95.24;100739.92;2746890;86;21078;-76
2021/11/19 03:06:14;;;;;;;3.77;2.27;;;;;;;10.08;95.45;100749.73;2746591;85;21059;-73
2021/11/19 03:10:21;;;;;;;1.70;1.60;;;;;;;10.11;95.42;100729.57;2747000;85;21023;-75
2021/11/19 03:14:24;;;;;;;4.08;3.30;;;;;;;10.10;95.70;100747.81;2746981;86;21054;-75
2021/11/19 03:18:28;;;;;;;3.22;2.27;;;;;;;10.19;95.49;100714.86;2747190;85;21118;-76
2021/11/19 03:22:31;;;;;;;3.85;3.20;;;;;;;10.17;95.71;100720.30;2746940;86;21098;-71
2021/11/19 03:26:34;;;;;;;7.53;3.58;;;;;;;10.15;95.91;100715.59;2746554;86;21403;-77
2021/11/19 03:30:39;;;;;;;3.30;2.50;;;;;;;10.27;95.64;100729.78;2746729;86;21043;-77
2021/11/19 03:34:41;;;;;;;5.35;3.67;;;;;;;10.27;95.50;100711.17;2746674;86;21031;-73
2021/11/19 03:38:47;;;;;;;6.78;4.35;;;;;;;10.25;95.88;100717.09;2746990;85;21012;-74
2021/11/19 03:42:49;;;;;;;;;;;;;;;10.33;95.90;100736.47;2749809;86;21051;-74
2021/11/19 03:47:00;;;;;;;7.37;4.67;;;;;;;10.19;96.57;100722.37;2747262;86;20125;-73
2021/11/19 03:51:13;;;;;;;9.43;5.90;;;;;;;10.22;96.81;100742.55;2740187;86;21081;-70
2021/11/19 03:55:20;;;;;;;7.00;5.72;;;;;;;10.06;98.01;100746.34;2733537;87;21045;-73
2021/11/19 03:59:22;;;;;;;10.53;6.10;;;;;;;10.01;99.00;100731.19;2734257;87;21072;-73
2021/11/19 04:03:24;;;;;;;13.75;6.05;;;;;;;10.00;99.51;100734.80;2734137;84;21041;-76
2021/11/19 04:07:26;;;;;;;9.15;8.08;;;;;;;10.04;99.82;100744.28;2732133;87;21026;-78
2021/11/19 04:11:28;;;;;;;10.43;7.45;;;;;;;10.04;100.00;100748.73;2732153;87;21732;-74
2021/11/19 04:15:35;;;;;;;12.23;7.00;;;;;;;10.08;100.00;100739.11;2732601;86;21077;-73
2021/11/19 04:19:38;;;;;;;11.70;9.03;;;;;;;10.10;100.00;100755.79;2733342;87;21076;-74
2021/11/19 04:23:41;;;;;;;11.63;8.53;;;;;;;10.10;100.00;100753.13;2733993;86;21006;-76
2021/11/19 04:27:43;;;;;;;6.70;5.85;;;;;;;10.00;100.00;100760.05;2734174;87;21021;-75
2021/11/19 04:31:45;;;;;;;12.78;10.38;;;;;;;9.96;100.00;100758.12;2734236;87;21089;-74
2021/11/19 04:35:49;;;;;;;9.88;7.97;;;;;;;9.99;100.00;100765.00;2734270;86;21058;-75
2021/11/19 04:39:51;;;;;;;8.95;6.92;;;;;;;9.96;100.00;100752.80;2734160;87;21006;-74
2021/11/19 04:43:53;;;;;;;17.32;9.88;;;;;;;9.98;100.00;100748.23;2734262;87;21062;-73
2021/11/19 04:47:56;;;;;;;8.65;7.55;;;;;;;10.06;100.00;100745.02;2734041;87;21010;-74
2021/11/19 04:51:59;;;;;;;15.32;9.85;;;;;;;10.11;100.00;100756.16;2733790;85;21073;-74
2021/11/19 04:56:03;;;;;;;17.70;7.85;;;;;;;10.11;100.00;100739.34;2734205;87;21665;-73
2021/11/19 05:00:17;;;;;;;15.68;8.75;;;;;;;10.12;100.00;100755.19;2734222;87;21096;-73
2021/11/19 05:04:19;;;;;;;12.35;9.05;;;;;;;10.17;100.00;100734.06;2733396;87;21074;-73
2021/11/19 05:08:22;;;;;;;12.90;8.95;;;;;;;10.15;100.00;100745.66;2734318;87;21033;-74
2021/11/19 05:12:35;;;;;;;9.08;7.60;;;;;;;10.13;100.00;100742.27;2734487;84;21014;-72
2021/11/19 05:16:37;;;;;;;13.22;8.83;;;;;;;10.07;100.00;100744.05;2734709;83;21053;-78
2021/11/19 05:20:39;;;;;;;12.80;9.08;;;;;;;10.18;100.00;100717.15;2734641;84;21009;-75
2021/11/19 05:24:42;;;;;;;12.82;9.33;;;;;;;10.23;100.00;100735.80;2734724;86;21022;-74
2021/11/19 05:28:44;;;;;;;14.70;10.15;;;;;;;10.16;100.00;100722.59;2734806;83;21045;-78
2021/11/19 05:32:46;;;;;;;11.85;8.45;;;;;;;10.10;100.00;100727.88;2734689;83;21077;-77
2021/11/19 05:36:49;;;;;;;15.50;9.18;;;;;;;10.20;100.00;100749.78;2734876;84;21038;-81
2021/11/19 05:40:52;;;;;;;13.62;9.90;;;;;;;10.27;100.00;100747.06;2735359;87;20990;-79
2021/11/19 05:44:54;;;;;;;9.90;7.03;;;;;;;10.25;100.00;100739.69;2734049;83;21030;-74
2021/11/19 05:48:59;;;;;;;10.93;8.83;;;;;;;10.22;100.00;100757.17;2734503;86;21045;-75
2021/11/19 05:53:02;;;;;;;12.23;6.97;;;;;;;10.29;100.00;100730.02;2734589;84;21061;-75
2021/11/19 05:57:07;;;;;;;8.73;7.62;;;;;;;10.31;100.00;100744.55;2734387;87;21022;-74
2021/11/19 06:01:13;;;;;;;7.97;6.87;;;;;;;10.33;100.00;100747.11;2734405;87;20994;-74
2021/11/19 06:05:16;;;;;;;8.20;6.20;;;;;;;10.39;100.00;100758.11;2734381;87;21132;-75
2021/11/19 06:09:27;;;;;;;13.45;6.50;;;;;;;10.39;100.00;100759.44;2734441;84;21073;-75
2021/11/19 06:13:43;;;;;;;9.63;8.63;;;;;;;10.38;100.00;100752.42;2732865;87;21074;-75
2021/11/19 06:17:49;;;;;;;6.62;6.03;;;;;;;10.46;99.73;100764.36;2752568;86;21051;-72
2021/11/19 06:21:59;;;;;;;10.23;6.65;;;;;;;10.46;99.57;100761.20;2804977;85;21075;-75
2021/11/19 06:26:06;;;;;;;8.45;6.80;;;;;;;10.56;99.13;100753.39;2778659;85;29958;-76
2021/11/19 06:30:13;;;;;;;13.00;8.18;;;;;;;10.59;98.91;100778.43;2805020;85;21042;-74
2021/11/19 06:34:16;;;;;;;8.73;7.83;;;;;;;10.70;98.78;100773.17;2753608;86;21265;-74
2021/11/19 06:38:19;;;;;;;9.15;8.05;;;;;;;10.71;98.62;100766.88;2804770;85;21077;-77
2021/11/19 06:42:21;;;;;;;12.18;7.65;;;;;;;10.76;98.67;100780.31;2804354;85;21078;-76
2021/11/19 06:46:23;;;;;;;13.60;10.03;;;;;;;10.78;98.49;100795.69;2753138;86;21101;-75
2021/11/19 06:50:28;;;;;;;14.93;8.13;;;;;;;10.79;98.65;100810.69;2804061;85;21059;-74
2021/11/19 06:54:30;;;;;;;13.62;8.43;;;;;;;10.84;98.34;100797.91;2800627;85;21051;-75
2021/11/19 06:58:33;;;;;;;16.25;8.23;;;;;;;10.84;98.48;100803.23;2800339;85;21043;-75
2021/11/19 07:02:35;;;;;;;11.75;7.80;;;;;;;10.86;98.47;100818.59;2800138;85;21023;-78
2021/11/19 07:06:38;;;;;;;11.95;9.38;;;;;;;10.85;98.57;100800.94;2800370;85;21031;-73
2021/11/19 07:10:43;;;;;;;12.95;8.40;;;;;;;10.88;98.55;100804.69;2800131;85;21098;-76
2021/11/19 07:14:45;;;;;;;10.75;8.80;;;;;;;10.94;98.62;100810.05;2800657;82;21058;-75
2021/11/19 07:18:47;;;;;;;8.98;7.55;;;;;;;10.97;98.58;100823.95;2800611;85;21087;-74
2021/11/19 07:22:49;;;;;;;8.15;7.22;;;;;;;10.96;98.45;100820.09;2800561;85;21060;-76
2021/11/19 07:26:52;;;;;;;12.10;8.98;;;;;;;10.96;98.80;100822.25;2800494;85;21138;-75
2021/11/19 07:30:58;;;;;;;8.55;7.65;;;;;;;11.01;98.48;100809.94;2800242;85;20999;-77
2021/11/19 07:35:00;;;;;;;;;;;;;;;11.00;98.72;100817.09;2802983;85;21614;-76
2021/11/19 07:39:06;;;;;;;16.17;7.97;;;;;;;11.05;98.62;100833.19;2780341;85;20105;-74
2021/11/19 07:43:08;;;;;;;;;;;;;;;11.10;98.46;100823.03;2822916;83;21088;-76
2021/11/19 07:47:10;;;;;;;9.85;6.70;;;;;;;11.06;98.37;100838.88;2852128;83;20153;-77
2021/11/19 07:51:17;;;;;;;11.78;8.40;;;;;;;11.07;98.60;100832.59;2844852;83;21108;-75
2021/11/19 07:55:20;;;;;;;9.05;6.80;;;;;;;11.17;98.31;100854.88;2826425;84;21349;-74
2021/11/19 07:59:26;;;;;;;8.20;5.80;;;;;;;11.18;98.08;100819.30;2826522;84;20983;-76
2021/11/19 08:03:28;;;;;;;7.12;5.62;;;;;;;11.22;98.05;100828.77;2860019;83;21001;-76
2021/11/19 08:07:30;;;;;;;8.90;7.17;;;;;;;11.24;97.96;100825.50;2860066;83;21028;-77
2021/11/19 08:11:33;;;;;;;9.08;7.03;;;;;;;11.24;98.02;100818.84;2859852;83;21020;-77
2021/11/19 08:15:35;;;;;;;10.13;6.87;;;;;;;11.27;98.18;100833.26;2859998;83;21224;-77
2021/11/19 08:19:44;;;;;;;11.97;6.72;;;;;;;11.29;97.90;100837.98;2859956;83;21573;-77
2021/11/19 08:23:48;;;;;;;7.33;6.60;;;;;;;11.28;98.39;100844.74;2859920;83;21037;-76
2021/11/19 08:27:54;;;;;;;6.87;5.30;;;;;;;11.31;98.38;100843.67;2858876;83;21045;-74
2021/11/19 08:31:58;;;;;;;7.20;6.40;;;;;;;11.33;98.58;100844.41;2860177;83;21032;-74
2021/11/19 08:36:00;;;;;;;6.50;5.05;;;;;;;11.29;98.29;100861.95;2860404;83;21021;-74
2021/11/19 08:40:06;;;;;;;8.00;5.92;;;;;;;11.35;98.19;100815.83;2860242;83;21052;-76
2021/11/19 08:44:09;;;;;;;8.88;6.78;;;;;;;11.34;98.31;100826.12;2860145;83;21013;-74
2021/11/19 08:48:12;;;;;;;7.00;4.53;;;;;;;11.40;98.57;100845.65;2860015;83;21036;-74
2021/11/19 08:52:17;;;;;;;10.18;5.83;;;;;;;11.41;98.45;100834.86;2854781;83;21041;-74
2021/11/19 08:56:21;;;;;;;6.40;4.65;;;;;;;11.47;97.94;100837.54;2849193;83;21623;-71
2021/11/19 09:00:28;;;;;;;5.92;5.33;;;;;;;11.46;98.12;100870.48;2848559;78;21044;-73
2021/11/19 09:04:30;;;;;;;6.75;4.97;;;;;;;11.53;98.08;100855.70;2848966;83;21578;-73
2021/11/19 09:08:32;;;;;;;7.05;5.90;;;;;;;11.48;98.08;100851.22;2848602;80;21076;-76
2021/11/19 09:12:34;;;;;;;7.75;4.67;;;;;;;11.55;97.61;100868.42;2848267;83;21389;-72
2021/11/19 09:16:41;;;;;;;7.25;5.60;;;;;;;11.54;97.91;100861.40;2848415;83;21087;-74
2021/11/19 09:21:22;;;;;;;5.60;4.20;;;;;;;11.60;97.57;100849.92;2848755;83;21048;-75
2021/11/19 09:25:24;;;;;;;6.12;4.67;;;;;;;11.64;97.47;100866.87;2847955;83;21064;-74
2021/11/19 09:29:34;;;;;;;6.28;4.80;;;;;;;11.68;97.26;100866.16;2848887;83;20985;-77
2021/11/19 09:33:37;;;;;;;6.78;6.03;;;;;;;11.67;97.05;100847.14;2848561;82;21028;-77
2021/11/19 09:37:40;;;;;;;6.17;4.58;;;;;;;11.61;97.21;100855.62;2848539;83;21009;-74
2021/11/19 09:42:15;;;;;;;7.35;5.28;;;;;;;11.63;97.41;100863.84;2848539;83;21399;-74
2021/11/19 09:46:38;;;;;;;6.33;5.10;;;;;;;11.66;97.69;100870.76;2848799;83;21107;-76
2021/11/19 09:51:21;;;;;;;10.03;6.28;;;;;;;11.66;97.70;100856.10;2849100;83;21028;-74
2021/11/19 09:56:18;;;;;;;8.55;5.67;;;;;;;11.78;97.59;100869.79;2859900;83;21087;-75
2021/11/19 10:00:44;;;;;;;10.55;5.75;;;;;;;11.71;97.53;100852.59;2860312;83;21091;-75
2021/11/19 10:05:25;;;;;;;7.55;5.42;;;;;;;11.86;97.28;100855.39;2860205;83;21131;-72
2021/11/19 10:10:11;;;;;;;6.37;5.28;;;;;;;11.86;97.28;100855.39;2860240;83;21052;-73
2021/11/19 10:14:27;;;;;;;5.12;4.70;;;;;;;11.90;96.97;100848.48;2860347;83;21001;-74
2021/11/19 10:18:50;;;;;;;6.37;4.75;;;;;;;11.95;97.09;100852.96;2859921;82;21064;-73
2021/11/19 10:22:57;;;;;;;5.33;4.83;;;;;;;11.93;96.72;100857.10;2860042;83;21013;-72
2021/11/19 10:26:59;;;;;;;5.47;5.00;;;;;;;11.99;96.36;100852.61;2860022;83;21080;-73
2021/11/19 10:31:02;;;;;;;5.60;5.10;;;;;;;12.04;96.44;100852.28;2859994;83;21068;-74
2021/11/19 10:35:34;;;;;;;5.40;3.98;;;;;;;12.09;96.03;100841.27;2859827;83;21468;-74
2021/11/19 10:40:14;;;;;;;8.23;6.20;;;;;;;12.09;94.95;100843.42;2859939;83;21099;-73
2021/11/19 10:45:03;;;;;;;11.05;4.47;;;;;;;12.22;95.58;100837.13;2860016;83;21025;-73
2021/11/19 10:50:00;;;;;;;7.20;5.00;;;;;;;12.23;94.83;100830.81;2859908;83;21056;-72
2021/11/19 10:54:36;;;;;;;5.83;5.30;;;;;;;12.25;94.65;100824.87;2859464;83;21072;-74
2021/11/19 10:58:55;;;;;;;5.00;4.50;;;;;;;12.27;94.75;100844.27;2860261;83;21013;-76
2021/11/19 11:02:59;;;;;;;5.97;5.22;;;;;;;12.36;94.27;100818.16;2860017;83;21037;-76
2021/11/19 11:07:24;;;;;;;8.20;4.78;;;;;;;12.45;93.79;100769.05;2860206;83;21052;-74
2021/11/19 11:11:33;;;;;;;10.45;4.65;;;;;;;12.35;93.86;100800.46;2860162;83;21044;-75
2021/11/19 11:15:40;;;;;;;5.25;4.28;;;;;;;12.42;94.03;100789.67;2838273;83;20939;-77
2021/11/19 11:19:46;;;;;;;7.55;4.80;;;;;;;12.39;93.86;100796.59;2832495;84;21425;-73
2021/11/19 11:24:09;;;;;;;6.35;5.30;;;;;;;12.45;94.17;100797.06;2836357;82;20970;-73
2021/11/19 11:28:20;;;;;;;7.95;4.70;;;;;;;12.49;93.94;100786.02;2773199;86;21087;-74
2021/11/19 11:32:56;;;;;;;15.53;4.25;;;;;;;12.45;93.51;100790.39;2748021;86;21098;-73
2021/11/19 11:37:26;;;;;;;5.42;4.67;;;;;;;12.46;93.64;100778.74;2747680;85;21039;-73
2021/11/19 11:41:53;;;;;;;5.22;4.00;;;;;;;12.57;93.95;100793.36;2748040;85;21075;-73
2021/11/19 11:45:57;;;;;;;;;;;;;;;12.59;93.98;100780.77;2750003;86;21020;-73
2021/11/19 11:50:04;;;;;;;4.70;4.05;;;;;;;12.60;93.22;100810.48;2747935;85;20090;-72
2021/11/19 11:54:32;;;;;;;4.17;3.42;;;;;;;12.57;93.37;100788.89;2651556;88;21028;-74
2021/11/19 11:58:51;;;;;;;5.05;4.40;;;;;;;12.49;93.32;100783.83;2707828;88;20992;-73
2021/11/19 12:03:17;;;;;;;5.65;3.35;;;;;;;12.45;93.88;100824.57;2702985;86;21018;-73
2021/11/19 12:07:36;;;;;;;3.77;3.40;;;;;;;12.41;93.31;100803.98;2708112;88;21381;-73
2021/11/19 12:11:55;;;;;;;5.90;4.15;;;;;;;12.35;93.64;100801.80;2708085;88;21020;-73
2021/11/19 12:16:31;;;;;;;5.53;3.98;;;;;;;12.33;94.20;100802.41;2707951;88;21050;-73
2021/11/19 12:21:01;;;;;;;8.03;5.17;;;;;;;12.34;94.63;100814.77;2707717;88;21054;-74
2021/11/19 12:25:31;;;;;;;4.85;4.35;;;;;;;12.35;94.40;100804.97;2716160;87;21076;-74
2021/11/19 12:30:01;;;;;;;6.33;4.25;;;;;;;12.38;94.38;100814.91;2734671;87;20992;-73
2021/11/19 12:34:17;;;;;;;9.35;5.70;;;;;;;12.40;93.99;100806.30;2734831;87;20999;-73
2021/11/19 12:38:24;;;;;;;;;;;;;;;12.36;93.81;100810.16;2729269;87;21042;-73
2021/11/19 12:42:33;;;;;;;4.87;4.42;;;;;;;12.42;94.01;100820.35;2735212;86;20118;-72
2021/11/19 12:47:30;;;;;;;5.55;4.72;;;;;;;12.42;93.65;100780.80;2733871;87;21039;-74
2021/11/19 12:51:43;;;;;;;5.60;4.65;;;;;;;12.38;93.73;100804.71;2736513;83;21063;-74
2021/11/19 12:56:19;;;;;;;7.08;4.70;;;;;;;12.38;93.92;100823.39;2779596;85;21059;-73
2021/11/19 13:01:00;;;;;;;4.80;4.30;;;;;;;12.40;93.93;100792.95;2779522;85;21292;-74
2021/11/19 13:05:18;;;;;;;5.15;4.12;;;;;;;12.35;94.13;100792.45;2779602;85;21035;-73
2021/11/19 13:09:45;;;;;;;5.75;4.97;;;;;;;12.44;93.95;100788.20;2779866;85;21122;-74
2021/11/19 13:13:47;;;;;;;6.10;5.37;;;;;;;12.49;93.91;100796.69;2836363;80;21001;-73
2021/11/19 13:18:09;;;;;;;5.70;5.17;;;;;;;12.45;94.01;100780.55;2836259;84;21048;-74
2021/11/19 13:22:22;;;;;;;5.78;4.92;;;;;;;12.51;93.96;100791.21;2806451;84;21002;-74
2021/11/19 13:26:34;;;;;;;9.25;6.03;;;;;;;12.41;94.17;100794.65;2775445;85;21009;-77
2021/11/19 13:30:40;;;;;;;8.43;6.70;;;;;;;12.46;94.04;100802.25;2747292;86;21023;-74
2021/11/19 13:34:53;;;;;;;9.68;6.65;;;;;;;12.39;94.17;100804.60;2746897;86;21048;-77
2021/11/19 13:39:35;;;;;;;8.98;7.70;;;;;;;12.45;94.42;100804.56;2747158;86;21079;-76
2021/11/19 13:43:44;;;;;;;7.67;6.53;;;;;;;12.46;94.38;100794.75;2747077;86;21032;-77
2021/11/19 13:47:54;;;;;;;8.95;6.65;;;;;;;12.38;94.23;100806.05;2747161;85;21063;-77
2021/11/19 13:52:26;;;;;;;7.95;6.62;;;;;;;12.39;94.53;100809.94;2780370;85;21000;-76
2021/11/19 13:56:52;;;;;;;8.75;6.75;;;;;;;12.34;95.05;100824.61;2804256;85;21078;-75
2021/11/19 14:01:33;;;;;;;;;;;;;;;12.39;95.11;100813.08;2806700;85;21393;-75
2021/11/19 14:05:37;;;;;;;8.18;6.08;;;;;;;12.33;95.40;100812.25;2803980;85;20173;-77
2021/11/19 14:09:56;;;;;;;11.57;6.90;;;;;;;12.31;95.73;100813.69;2804378;85;20948;-73
2021/11/19 14:13:59;;;;;;;7.45;5.95;;;;;;;12.30;96.23;100824.00;2804394;85;21007;-75
2021/11/19 14:18:25;;;;;;;9.25;6.97;;;;;;;12.23;96.30;100817.48;2804106;85;21055;-78
2021/11/19 14:22:41;;;;;;;9.43;6.72;;;;;;;12.23;96.42;100806.81;2800318;85;21074;-73
2021/11/19 14:26:49;;;;;;;7.87;6.95;;;;;;;12.22;96.39;100825.12;2779608;82;21062;-73
2021/11/19 14:30:53;;;;;;;10.82;6.28;;;;;;;12.21;96.30;100840.77;2804397;85;21035;-70
2021/11/19 14:35:00;;;;;;;18.00;8.18;;;;;;;12.34;95.98;100832.11;2804107;85;21003;-70
2021/11/19 14:39:11;;;;;;;11.12;6.37;;;;;;;12.35;96.00;100836.98;2799796;85;21532;-70
2021/11/19 14:43:17;;;;;;;7.67;6.87;;;;;;;12.47;95.43;100833.80;2750573;85;21118;-70
2021/11/19 14:47:40;;;;;;;9.18;6.95;;;;;;;12.48;95.28;100839.02;2777557;85;21028;-72
2021/11/19 14:51:48;;;;;;;9.13;6.95;;;;;;;12.51;95.26;100824.56;2775206;85;20988;-72
2021/11/19 14:55:58;;;;;;;6.65;6.05;;;;;;;12.50;95.63;100845.55;2748244;86;20996;-71
2021/11/19 15:00:05;;;;;;;7.95;7.05;;;;;;;12.55;95.52;100842.88;2754781;86;21024;-71
2021/11/19 15:04:41;;;;;;;8.98;7.37;;;;;;;12.53;95.65;100835.48;2754413;86;21024;-70
2021/11/19 15:08:43;;;;;;;10.85;7.33;;;;;;;12.50;96.02;100838.88;2755229;86;21016;-72
2021/11/19 15:12:49;;;;;;;10.82;8.65;;;;;;;12.49;96.12;100847.86;2754922;86;21076;-70
2021/11/19 15:16:59;;;;;;;8.90;7.70;;;;;;;12.45;96.54;100846.42;2759349;85;21078;-70
2021/11/19 15:21:21;;;;;;;9.50;7.87;;;;;;;12.47;96.82;100851.14;2783973;85;21043;-69
2021/11/19 15:25:28;;;;;;;10.05;7.03;;;;;;;12.39;97.44;100845.95;2763719;86;21054;-70
2021/11/19 15:29:38;;;;;;;11.20;7.35;;;;;;;12.33;98.03;100851.77;2737303;87;21103;-70
2021/11/19 15:34:08;;;;;;;10.45;7.92;;;;;;;12.38;98.20;100850.06;2783568;85;21007;-72
2021/11/19 15:38:35;;;;;;;7.70;6.90;;;;;;;12.26;99.09;100838.56;2763950;86;21031;-70
2021/11/19 15:42:37;;;;;;;11.28;7.50;;;;;;;12.27;98.99;100830.42;2832962;84;21064;-70
2021/11/19 15:46:42;;;;;;;8.30;6.47;;;;;;;12.22;99.40;100838.45;2814249;84;21078;-69
2021/11/19 15:50:45;;;;;;;10.10;7.50;;;;;;;12.13;99.67;100836.87;2788036;85;21039;-70
2021/11/19 15:55:01;;;;;;;10.28;6.47;;;;;;;12.14;99.29;100832.40;2798349;85;21022;-71
2021/11/19 15:59:25;;;;;;;11.20;8.55;;;;;;;12.19;99.00;100835.54;2799081;83;21062;-71
2021/11/19 16:04:14;;;;;;;9.68;8.13;;;;;;;12.23;98.25;100849.48;2752798;83;21524;-69
2021/11/19 16:08:27;;;;;;;9.08;8.30;;;;;;;12.29;97.59;100852.98;2805009;83;21083;-70
2021/11/19 16:12:54;;;;;;;7.15;6.05;;;;;;;12.33;97.10;100862.94;2805172;80;20999;-70
2021/11/19 16:17:06;;;;;;;8.20;6.28;;;;;;;12.31;96.68;100851.04;2800770;83;21019;-70
2021/11/19 16:21:13;;;;;;;9.03;5.87;;;;;;;12.26;97.45;100855.41;2728913;84;21006;-70
2021/11/19 16:25:19;;;;;;;6.83;5.83;;;;;;;12.24;97.75;100849.84;2683252;88;21042;-69
2021/11/19 16:29:22;;;;;;;6.92;6.25;;;;;;;12.29;97.49;100848.98;2683662;88;21031;-69
2021/11/19 16:33:24;;;;;;;6.12;5.10;;;;;;;12.26;97.52;100850.57;2683660;88;21148;-69
2021/11/19 16:37:27;;;;;;;7.30;6.50;;;;;;;12.30;96.80;100846.68;2683169;88;21040;-69
2021/11/19 16:41:29;;;;;;;6.85;6.17;;;;;;;12.26;96.68;100841.23;2683294;88;21006;-69
2021/11/19 16:45:37;;;;;;;5.78;5.17;;;;;;;12.25;96.14;100839.03;2686795;88;21087;-69
2021/11/19 16:49:40;;;;;;;7.78;5.97;;;;;;;12.34;95.90;100848.62;2804198;85;21007;-70
2021/11/19 16:53:43;;;;;;;7.58;6.90;;;;;;;12.24;95.95;100843.18;2753186;85;21042;-71
2021/11/19 16:57:45;;;;;;;10.32;6.42;;;;;;;12.32;95.92;100854.07;2804482;85;21058;-70
2021/11/19 17:01:50;;;;;;;6.83;6.08;;;;;;;12.30;95.86;100845.34;2753288;86;21039;-70
2021/11/19 17:05:54;;;;;;;10.38;8.23;;;;;;;12.31;95.46;100847.04;2804294;85;21039;-71
2021/11/19 17:09:57;;;;;;;8.33;6.70;;;;;;;12.33;95.31;100826.92;2753234;86;21082;-70
2021/11/19 17:13:59;;;;;;;10.00;6.95;;;;;;;12.38;95.14;100845.59;2804449;85;21003;-69
2021/11/19 17:18:02;;;;;;;9.35;7.15;;;;;;;12.41;94.82;100851.14;2718271;86;21102;-70
2021/11/19 17:22:06;;;;;;;17.23;6.60;;;;;;;12.36;94.55;100844.84;2758264;86;21058;-70
2021/11/19 17:26:09;;;;;;;8.33;6.97;;;;;;;12.39;94.08;100846.42;2758047;86;22418;-71
2021/11/19 17:30:16;;;;;;;7.65;6.95;;;;;;;12.42;93.54;100829.69;2758227;86;21063;-69
2021/11/19 17:34:20;;;;;;;6.58;6.05;;;;;;;12.50;93.08;100837.55;2758147;86;21114;-70
2021/11/19 17:38:25;;;;;;;7.80;6.85;;;;;;;12.50;92.78;100844.22;2758156;86;20999;-70
2021/11/19 17:42:31;;;;;;;6.97;6.33;;;;;;;12.52;92.35;100840.46;2757942;86;21129;-70
2021/11/19 17:46:39;;;;;;;10.15;6.97;;;;;;;12.49;91.93;100846.53;2776344;85;21644;-70
2021/11/19 17:50:46;;;;;;;7.22;6.53;;;;;;;12.53;91.48;100854.16;2801536;85;21086;-69
2021/11/19 17:54:50;;;;;;;6.70;5.97;;;;;;;12.43;91.37;100847.39;2791382;85;21075;-69
2021/11/19 17:58:52;;;;;;;7.25;6.50;;;;;;;12.50;91.25;100846.88;2781681;85;21075;-72
2021/11/19 18:02:54;;;;;;;7.20;5.90;;;;;;;12.48;91.14;100852.84;2781319;85;21083;-70
2021/11/19 18:06:57;;;;;;;7.90;6.20;;;;;;;12.51;90.93;100848.11;2781597;85;21099;-70
2021/11/19 18:11:02;;;;;;;6.42;5.80;;;;;;;12.51;90.97;100852.58;2781556;85;21047;-70
2021/11/19 18:15:08;;;;;;;8.73;6.50;;;;;;;12.56;90.68;100848.58;2782073;85;21087;-70
2021/11/19 18:19:14;;;;;;;8.05;7.35;;;;;;;12.59;90.50;100847.96;2784393;85;20996;-70
2021/11/19 18:23:16;;;;;;;7.27;5.90;;;;;;;12.62;90.46;100844.56;2784590;85;21074;-70
2021/11/19 18:27:23;;;;;;;9.58;6.95;;;;;;;12.63;90.67;100846.26;2783787;85;21048;-70
2021/11/19 18:31:30;;;;;;;7.37;6.65;;;;;;;12.54;90.82;100837.18;2782243;85;21063;-69
2021/11/19 18:35:34;;;;;;;10.43;7.35;;;;;;;12.60;90.65;100845.66;2784208;85;20992;-72
2021/11/19 18:39:41;;;;;;;9.38;7.08;;;;;;;12.55;90.33;100839.34;2784299;85;21026;-69
2021/11/19 18:43:45;;;;;;;10.13;6.03;;;;;;;12.49;90.42;100837.19;2784346;85;21312;-69
2021/11/19 18:47:47;;;;;;;6.55;5.75;;;;;;;12.48;90.23;100840.36;2760299;85;21075;-70
2021/11/19 18:52:00;;;;;;;7.05;5.60;;;;;;;12.51;89.83;100844.11;2788502;85;21019;-70
2021/11/19 18:56:03;;;;;;;9.00;5.92;;;;;;;12.46;89.85;100834.27;2788348;85;21079;-70
2021/11/19 19:00:13;;;;;;;7.12;6.12;;;;;;;12.46;89.48;100836.11;2788338;85;21341;-71
2021/11/19 19:04:16;;;;;;;6.42;5.37;;;;;;;12.37;89.88;100843.86;2788478;85;21062;-70
2021/11/19 19:08:19;;;;;;;12.70;6.90;;;;;;;12.38;89.72;100840.26;2788267;85;20972;-70
2021/11/19 19:12:25;;;;;;;6.80;6.10;;;;;;;12.31;89.79;100846.20;2788445;85;20987;-69
2021/11/19 19:16:31;;;;;;;7.28;5.50;;;;;;;12.37;89.53;100854.53;2805244;84;21006;-70
2021/11/19 19:20:40;;;;;;;9.13;6.47;;;;;;;12.41;89.00;100848.01;2831046;83;21081;-71
2021/11/19 19:24:42;;;;;;;8.85;6.55;;;;;;;12.49;88.63;100849.20;2831245;83;21417;-71